sensor_id;sensor_type;location;lat;lon;timestamp;P1;durP1;ratioP1;P2;durP2;ratioP2
8952;SDS011;4511;50.890;8.054;2023-07-31T00:00:58;4.63;;;3.50;;
8952;SDS011;4511;50.890;8.054;2023-07-31T00:03:24;5.73;;;3.50;;
8952;SDS011;4511;50.890;8.054;2023-07-31T00:05:51;7.50;;;3.50;;
8952;SDS011;4511;50.890;8.054;2023-07-31T00:08:18;4.40;;;3.30;;
8952;SDS011;4511;50.890;8.054;2023-07-31T00:10:45;6.33;;;3.07;;
8952;SDS011;4511;50.890;8.054;2023-07-31T00:13:13;6.27;;;3.33;;
8952;SDS011;4511;50.890;8.054;2023-07-31T00:15:40;5.07;;;3.20;;
8952;SDS011;4511;50.890;8.054;2023-07-31T00:18:06;4.30;;;3.20;;
8952;SDS011;4511;50.890;8.054;2023-07-31T00:20:33;5.83;;;3.47;;
8952;SDS011;4511;50.890;8.054;2023-07-31T00:23:00;5.37;;;3.43;;
8952;SDS011;4511;50.890;8.054;2023-07-31T00:25:27;4.33;;;3.27;;
8952;SDS011;4511;50.890;8.054;2023-07-31T00:27:54;5.33;;;3.30;;
8952;SDS011;4511;50.890;8.054;2023-07-31T00:30:22;6.83;;;3.40;;
8952;SDS011;4511;50.890;8.054;2023-07-31T00:32:50;4.23;;;3.13;;
8952;SDS011;4511;50.890;8.054;2023-07-31T00:35:17;4.70;;;3.20;;
8952;SDS011;4511;50.890;8.054;2023-07-31T00:37:43;8.70;;;3.50;;
8952;SDS011;4511;50.890;8.054;2023-07-31T00:40:11;8.27;;;3.80;;
8952;SDS011;4511;50.890;8.054;2023-07-31T00:42:38;6.37;;;3.70;;
8952;SDS011;4511;50.890;8.054;2023-07-31T00:45:05;5.27;;;3.60;;
8952;SDS011;4511;50.890;8.054;2023-07-31T00:47:34;7.00;;;3.40;;
8952;SDS011;4511;50.890;8.054;2023-07-31T00:50:01;5.53;;;3.77;;
8952;SDS011;4511;50.890;8.054;2023-07-31T00:52:28;7.63;;;3.70;;
8952;SDS011;4511;50.890;8.054;2023-07-31T00:54:55;5.43;;;3.47;;
8952;SDS011;4511;50.890;8.054;2023-07-31T00:57:22;6.43;;;3.67;;
8952;SDS011;4511;50.890;8.054;2023-07-31T00:59:49;9.27;;;4.03;;
8952;SDS011;4511;50.890;8.054;2023-07-31T01:02:15;5.17;;;3.30;;
8952;SDS011;4511;50.890;8.054;2023-07-31T01:04:44;8.30;;;3.73;;
8952;SDS011;4511;50.890;8.054;2023-07-31T01:07:13;10.57;;;3.70;;
8952;SDS011;4511;50.890;8.054;2023-07-31T01:09:57;5.43;;;3.97;;
8952;SDS011;4511;50.890;8.054;2023-07-31T01:12:34;7.50;;;4.10;;
8952;SDS011;4511;50.890;8.054;2023-07-31T01:15:03;6.00;;;4.33;;
8952;SDS011;4511;50.890;8.054;2023-07-31T01:17:31;5.43;;;4.00;;
8952;SDS011;4511;50.890;8.054;2023-07-31T01:20:01;7.00;;;3.63;;
8952;SDS011;4511;50.890;8.054;2023-07-31T01:22:36;6.70;;;3.97;;
8952;SDS011;4511;50.890;8.054;2023-07-31T01:25:16;9.07;;;3.90;;
8952;SDS011;4511;50.890;8.054;2023-07-31T01:27:59;5.33;;;3.50;;
8952;SDS011;4511;50.890;8.054;2023-07-31T01:30:29;5.13;;;3.50;;
8952;SDS011;4511;50.890;8.054;2023-07-31T01:33:00;7.23;;;3.83;;
8952;SDS011;4511;50.890;8.054;2023-07-31T01:35:31;8.90;;;4.07;;
8952;SDS011;4511;50.890;8.054;2023-07-31T01:37:58;5.57;;;3.77;;
8952;SDS011;4511;50.890;8.054;2023-07-31T01:40:25;5.20;;;4.00;;
8952;SDS011;4511;50.890;8.054;2023-07-31T01:42:52;6.23;;;3.93;;
8952;SDS011;4511;50.890;8.054;2023-07-31T01:45:20;4.50;;;3.57;;
8952;SDS011;4511;50.890;8.054;2023-07-31T01:47:47;7.13;;;3.50;;
8952;SDS011;4511;50.890;8.054;2023-07-31T01:50:14;7.50;;;3.60;;
8952;SDS011;4511;50.890;8.054;2023-07-31T01:52:41;5.33;;;3.93;;
8952;SDS011;4511;50.890;8.054;2023-07-31T01:55:07;4.77;;;3.43;;
8952;SDS011;4511;50.890;8.054;2023-07-31T01:57:36;7.53;;;3.80;;
8952;SDS011;4511;50.890;8.054;2023-07-31T02:00:03;4.03;;;3.27;;
8952;SDS011;4511;50.890;8.054;2023-07-31T02:02:33;6.33;;;3.70;;
8952;SDS011;4511;50.890;8.054;2023-07-31T02:05:00;5.97;;;3.60;;
8952;SDS011;4511;50.890;8.054;2023-07-31T02:07:27;7.50;;;3.70;;
8952;SDS011;4511;50.890;8.054;2023-07-31T02:09:55;5.87;;;3.60;;
8952;SDS011;4511;50.890;8.054;2023-07-31T02:12:22;7.60;;;3.60;;
8952;SDS011;4511;50.890;8.054;2023-07-31T02:14:49;7.60;;;3.50;;
8952;SDS011;4511;50.890;8.054;2023-07-31T02:17:15;5.13;;;3.67;;
8952;SDS011;4511;50.890;8.054;2023-07-31T02:19:43;4.50;;;3.10;;
8952;SDS011;4511;50.890;8.054;2023-07-31T02:22:10;6.17;;;3.23;;
8952;SDS011;4511;50.890;8.054;2023-07-31T02:24:37;6.77;;;3.37;;
8952;SDS011;4511;50.890;8.054;2023-07-31T02:27:04;5.03;;;3.23;;
8952;SDS011;4511;50.890;8.054;2023-07-31T02:29:31;4.90;;;3.30;;
8952;SDS011;4511;50.890;8.054;2023-07-31T02:31:58;5.20;;;3.37;;
8952;SDS011;4511;50.890;8.054;2023-07-31T02:34:25;5.67;;;3.40;;
8952;SDS011;4511;50.890;8.054;2023-07-31T02:36:53;7.43;;;3.57;;
8952;SDS011;4511;50.890;8.054;2023-07-31T02:39:20;4.37;;;3.30;;
8952;SDS011;4511;50.890;8.054;2023-07-31T02:41:46;4.17;;;3.33;;
8952;SDS011;4511;50.890;8.054;2023-07-31T02:44:13;4.17;;;3.27;;
8952;SDS011;4511;50.890;8.054;2023-07-31T02:46:40;5.10;;;3.20;;
8952;SDS011;4511;50.890;8.054;2023-07-31T02:49:07;6.47;;;3.43;;
8952;SDS011;4511;50.890;8.054;2023-07-31T02:51:34;4.37;;;3.43;;
8952;SDS011;4511;50.890;8.054;2023-07-31T02:54:02;7.17;;;3.67;;
8952;SDS011;4511;50.890;8.054;2023-07-31T02:56:29;3.80;;;3.23;;
8952;SDS011;4511;50.890;8.054;2023-07-31T02:58:56;5.90;;;3.50;;
8952;SDS011;4511;50.890;8.054;2023-07-31T03:01:22;4.73;;;3.17;;
8952;SDS011;4511;50.890;8.054;2023-07-31T03:03:49;6.13;;;3.20;;
8952;SDS011;4511;50.890;8.054;2023-07-31T03:06:16;3.93;;;3.17;;
8952;SDS011;4511;50.890;8.054;2023-07-31T03:08:43;7.70;;;3.30;;
8952;SDS011;4511;50.890;8.054;2023-07-31T03:11:11;5.20;;;3.33;;
8952;SDS011;4511;50.890;8.054;2023-07-31T03:13:38;6.77;;;3.27;;
8952;SDS011;4511;50.890;8.054;2023-07-31T03:16:05;5.87;;;2.90;;
8952;SDS011;4511;50.890;8.054;2023-07-31T03:18:31;4.20;;;3.27;;
8952;SDS011;4511;50.890;8.054;2023-07-31T03:20:58;6.43;;;3.47;;
8952;SDS011;4511;50.890;8.054;2023-07-31T03:23:25;6.27;;;3.50;;
8952;SDS011;4511;50.890;8.054;2023-07-31T03:25:55;4.87;;;3.60;;
8952;SDS011;4511;50.890;8.054;2023-07-31T03:28:25;7.00;;;3.50;;
8952;SDS011;4511;50.890;8.054;2023-07-31T03:30:52;5.10;;;3.53;;
8952;SDS011;4511;50.890;8.054;2023-07-31T03:33:19;3.40;;;3.10;;
8952;SDS011;4511;50.890;8.054;2023-07-31T03:35:45;6.50;;;3.63;;
8952;SDS011;4511;50.890;8.054;2023-07-31T03:38:12;5.30;;;3.30;;
8952;SDS011;4511;50.890;8.054;2023-07-31T03:40:39;5.07;;;2.93;;
8952;SDS011;4511;50.890;8.054;2023-07-31T03:43:06;10.80;;;3.50;;
8952;SDS011;4511;50.890;8.054;2023-07-31T03:45:34;6.87;;;3.40;;
8952;SDS011;4511;50.890;8.054;2023-07-31T03:48:01;4.53;;;3.60;;
8952;SDS011;4511;50.890;8.054;2023-07-31T03:50:29;4.77;;;3.40;;
8952;SDS011;4511;50.890;8.054;2023-07-31T03:52:56;6.90;;;3.60;;
8952;SDS011;4511;50.890;8.054;2023-07-31T03:55:23;4.47;;;3.40;;
8952;SDS011;4511;50.890;8.054;2023-07-31T03:57:50;6.67;;;3.47;;
8952;SDS011;4511;50.890;8.054;2023-07-31T04:00:17;6.13;;;3.30;;
8952;SDS011;4511;50.890;8.054;2023-07-31T04:02:45;5.97;;;3.40;;
8952;SDS011;4511;50.890;8.054;2023-07-31T04:05:12;7.27;;;3.73;;
8952;SDS011;4511;50.890;8.054;2023-07-31T04:07:39;6.37;;;3.40;;
8952;SDS011;4511;50.890;8.054;2023-07-31T04:10:06;4.50;;;3.60;;
8952;SDS011;4511;50.890;8.054;2023-07-31T04:12:33;5.30;;;3.60;;
8952;SDS011;4511;50.890;8.054;2023-07-31T04:15:00;6.03;;;3.47;;
8952;SDS011;4511;50.890;8.054;2023-07-31T04:17:27;5.47;;;3.40;;
8952;SDS011;4511;50.890;8.054;2023-07-31T04:19:55;7.13;;;3.80;;
8952;SDS011;4511;50.890;8.054;2023-07-31T04:22:21;5.60;;;3.80;;
8952;SDS011;4511;50.890;8.054;2023-07-31T04:24:48;6.50;;;3.80;;
8952;SDS011;4511;50.890;8.054;2023-07-31T04:27:15;6.40;;;3.63;;
8952;SDS011;4511;50.890;8.054;2023-07-31T04:29:42;5.57;;;3.60;;
8952;SDS011;4511;50.890;8.054;2023-07-31T04:32:11;6.27;;;3.73;;
8952;SDS011;4511;50.890;8.054;2023-07-31T04:34:38;5.17;;;3.77;;
8952;SDS011;4511;50.890;8.054;2023-07-31T04:37:06;8.43;;;4.10;;
8952;SDS011;4511;50.890;8.054;2023-07-31T04:39:33;8.30;;;3.87;;
8952;SDS011;4511;50.890;8.054;2023-07-31T04:41:59;9.00;;;4.03;;
8952;SDS011;4511;50.890;8.054;2023-07-31T04:44:26;5.90;;;3.60;;
8952;SDS011;4511;50.890;8.054;2023-07-31T04:46:53;5.83;;;4.30;;
8952;SDS011;4511;50.890;8.054;2023-07-31T04:49:20;7.77;;;3.90;;
8952;SDS011;4511;50.890;8.054;2023-07-31T04:51:47;6.47;;;3.90;;
8952;SDS011;4511;50.890;8.054;2023-07-31T04:54:15;5.27;;;3.70;;
8952;SDS011;4511;50.890;8.054;2023-07-31T04:56:42;6.73;;;3.93;;
8952;SDS011;4511;50.890;8.054;2023-07-31T04:59:09;6.27;;;3.97;;
8952;SDS011;4511;50.890;8.054;2023-07-31T05:01:35;6.87;;;4.27;;
8952;SDS011;4511;50.890;8.054;2023-07-31T05:04:02;7.60;;;4.20;;
8952;SDS011;4511;50.890;8.054;2023-07-31T05:06:29;7.87;;;3.93;;
8952;SDS011;4511;50.890;8.054;2023-07-31T05:08:56;3.73;;;2.77;;
8952;SDS011;4511;50.890;8.054;2023-07-31T05:11:24;5.83;;;3.80;;
8952;SDS011;4511;50.890;8.054;2023-07-31T05:13:51;6.83;;;3.87;;
8952;SDS011;4511;50.890;8.054;2023-07-31T05:16:17;6.03;;;4.07;;
8952;SDS011;4511;50.890;8.054;2023-07-31T05:18:44;7.03;;;3.77;;
8952;SDS011;4511;50.890;8.054;2023-07-31T05:21:11;5.57;;;3.90;;
8952;SDS011;4511;50.890;8.054;2023-07-31T05:23:38;6.53;;;3.60;;
8952;SDS011;4511;50.890;8.054;2023-07-31T05:26:05;7.03;;;3.90;;
8952;SDS011;4511;50.890;8.054;2023-07-31T05:28:34;4.60;;;3.40;;
8952;SDS011;4511;50.890;8.054;2023-07-31T05:31:02;6.20;;;3.80;;
8952;SDS011;4511;50.890;8.054;2023-07-31T05:33:30;4.83;;;3.67;;
8952;SDS011;4511;50.890;8.054;2023-07-31T05:35:57;6.70;;;4.00;;
8952;SDS011;4511;50.890;8.054;2023-07-31T05:38:24;5.63;;;3.80;;
8952;SDS011;4511;50.890;8.054;2023-07-31T05:40:51;6.27;;;3.70;;
8952;SDS011;4511;50.890;8.054;2023-07-31T05:43:17;5.43;;;3.43;;
8952;SDS011;4511;50.890;8.054;2023-07-31T05:45:45;4.37;;;3.50;;
8952;SDS011;4511;50.890;8.054;2023-07-31T05:48:13;6.23;;;3.53;;
8952;SDS011;4511;50.890;8.054;2023-07-31T05:50:40;6.23;;;3.60;;
8952;SDS011;4511;50.890;8.054;2023-07-31T05:53:07;6.63;;;3.77;;
8952;SDS011;4511;50.890;8.054;2023-07-31T05:55:35;4.30;;;3.70;;
8952;SDS011;4511;50.890;8.054;2023-07-31T05:58:02;5.23;;;3.53;;
8952;SDS011;4511;50.890;8.054;2023-07-31T06:00:29;7.30;;;3.63;;
8952;SDS011;4511;50.890;8.054;2023-07-31T06:02:57;7.63;;;3.80;;
8952;SDS011;4511;50.890;8.054;2023-07-31T06:05:23;3.70;;;3.40;;
8952;SDS011;4511;50.890;8.054;2023-07-31T06:07:51;6.73;;;3.60;;
8952;SDS011;4511;50.890;8.054;2023-07-31T06:10:18;5.23;;;3.27;;
8952;SDS011;4511;50.890;8.054;2023-07-31T06:12:44;6.27;;;3.67;;
8952;SDS011;4511;50.890;8.054;2023-07-31T06:15:11;5.10;;;3.70;;
8952;SDS011;4511;50.890;8.054;2023-07-31T06:17:38;5.83;;;3.50;;
8952;SDS011;4511;50.890;8.054;2023-07-31T06:20:07;6.47;;;3.50;;
8952;SDS011;4511;50.890;8.054;2023-07-31T06:22:35;4.13;;;3.47;;
8952;SDS011;4511;50.890;8.054;2023-07-31T06:25:01;6.47;;;3.60;;
8952;SDS011;4511;50.890;8.054;2023-07-31T06:27:29;4.70;;;3.30;;
8952;SDS011;4511;50.890;8.054;2023-07-31T06:29:56;4.40;;;3.40;;
8952;SDS011;4511;50.890;8.054;2023-07-31T06:32:23;5.20;;;3.20;;
8952;SDS011;4511;50.890;8.054;2023-07-31T06:34:51;4.93;;;3.57;;
8952;SDS011;4511;50.890;8.054;2023-07-31T06:37:20;6.77;;;3.77;;
8952;SDS011;4511;50.890;8.054;2023-07-31T06:39:47;4.30;;;3.77;;
8952;SDS011;4511;50.890;8.054;2023-07-31T06:42:14;3.67;;;3.20;;
8952;SDS011;4511;50.890;8.054;2023-07-31T06:44:41;3.97;;;3.37;;
8952;SDS011;4511;50.890;8.054;2023-07-31T06:47:07;5.67;;;3.70;;
8952;SDS011;4511;50.890;8.054;2023-07-31T06:49:34;6.93;;;3.60;;
8952;SDS011;4511;50.890;8.054;2023-07-31T06:52:01;5.77;;;3.50;;
8952;SDS011;4511;50.890;8.054;2023-07-31T06:54:29;5.37;;;3.60;;
8952;SDS011;4511;50.890;8.054;2023-07-31T06:56:56;3.87;;;3.40;;
8952;SDS011;4511;50.890;8.054;2023-07-31T06:59:23;6.40;;;3.90;;
8952;SDS011;4511;50.890;8.054;2023-07-31T07:01:49;6.03;;;3.40;;
8952;SDS011;4511;50.890;8.054;2023-07-31T07:04:16;4.00;;;3.13;;
8952;SDS011;4511;50.890;8.054;2023-07-31T07:06:43;4.17;;;3.40;;
8952;SDS011;4511;50.890;8.054;2023-07-31T07:09:10;4.03;;;3.37;;
8952;SDS011;4511;50.890;8.054;2023-07-31T07:11:38;6.13;;;3.20;;
8952;SDS011;4511;50.890;8.054;2023-07-31T07:14:04;5.30;;;3.10;;
8952;SDS011;4511;50.890;8.054;2023-07-31T07:16:31;3.67;;;3.30;;
8952;SDS011;4511;50.890;8.054;2023-07-31T07:18:58;3.70;;;3.30;;
8952;SDS011;4511;50.890;8.054;2023-07-31T07:21:25;4.20;;;3.50;;
8952;SDS011;4511;50.890;8.054;2023-07-31T07:23:52;6.17;;;3.67;;
8952;SDS011;4511;50.890;8.054;2023-07-31T07:26:19;3.40;;;3.10;;
8952;SDS011;4511;50.890;8.054;2023-07-31T07:28:47;5.90;;;3.33;;
8952;SDS011;4511;50.890;8.054;2023-07-31T07:31:14;4.63;;;3.43;;
8952;SDS011;4511;50.890;8.054;2023-07-31T07:33:41;4.20;;;3.30;;
8952;SDS011;4511;50.890;8.054;2023-07-31T07:36:07;5.13;;;3.60;;
8952;SDS011;4511;50.890;8.054;2023-07-31T07:38:34;7.20;;;3.57;;
8952;SDS011;4511;50.890;8.054;2023-07-31T07:41:03;4.63;;;3.70;;
8952;SDS011;4511;50.890;8.054;2023-07-31T07:43:30;4.77;;;3.50;;
8952;SDS011;4511;50.890;8.054;2023-07-31T07:45:58;5.20;;;4.03;;
8952;SDS011;4511;50.890;8.054;2023-07-31T07:48:25;5.73;;;3.30;;
8952;SDS011;4511;50.890;8.054;2023-07-31T07:50:52;4.27;;;3.40;;
8952;SDS011;4511;50.890;8.054;2023-07-31T07:53:18;6.43;;;3.50;;
8952;SDS011;4511;50.890;8.054;2023-07-31T07:55:46;6.20;;;3.57;;
8952;SDS011;4511;50.890;8.054;2023-07-31T07:58:12;5.40;;;3.47;;
8952;SDS011;4511;50.890;8.054;2023-07-31T08:00:40;3.60;;;3.30;;
8952;SDS011;4511;50.890;8.054;2023-07-31T08:03:08;5.77;;;3.27;;
8952;SDS011;4511;50.890;8.054;2023-07-31T08:05:35;4.70;;;3.40;;
8952;SDS011;4511;50.890;8.054;2023-07-31T08:08:02;5.70;;;3.37;;
8952;SDS011;4511;50.890;8.054;2023-07-31T08:10:29;5.73;;;3.67;;
8952;SDS011;4511;50.890;8.054;2023-07-31T08:12:56;5.90;;;3.50;;
8952;SDS011;4511;50.890;8.054;2023-07-31T08:15:23;4.30;;;3.50;;
8952;SDS011;4511;50.890;8.054;2023-07-31T08:17:50;6.47;;;3.83;;
8952;SDS011;4511;50.890;8.054;2023-07-31T08:20:18;6.23;;;3.90;;
8952;SDS011;4511;50.890;8.054;2023-07-31T08:22:45;6.13;;;3.90;;
8952;SDS011;4511;50.890;8.054;2023-07-31T08:25:11;6.90;;;3.73;;
8952;SDS011;4511;50.890;8.054;2023-07-31T08:27:38;6.00;;;3.80;;
8952;SDS011;4511;50.890;8.054;2023-07-31T08:30:09;5.13;;;3.57;;
8952;SDS011;4511;50.890;8.054;2023-07-31T08:32:37;4.50;;;3.53;;
8952;SDS011;4511;50.890;8.054;2023-07-31T08:35:04;8.87;;;3.77;;
8952;SDS011;4511;50.890;8.054;2023-07-31T08:37:32;5.73;;;3.90;;
8952;SDS011;4511;50.890;8.054;2023-07-31T08:39:59;5.43;;;4.03;;
8952;SDS011;4511;50.890;8.054;2023-07-31T08:42:26;8.07;;;4.40;;
8952;SDS011;4511;50.890;8.054;2023-07-31T08:44:53;6.43;;;4.40;;
8952;SDS011;4511;50.890;8.054;2023-07-31T08:47:21;8.03;;;3.90;;
8952;SDS011;4511;50.890;8.054;2023-07-31T08:49:49;7.43;;;4.37;;
8952;SDS011;4511;50.890;8.054;2023-07-31T08:52:17;8.33;;;3.70;;
8952;SDS011;4511;50.890;8.054;2023-07-31T08:54:45;8.57;;;4.17;;
8952;SDS011;4511;50.890;8.054;2023-07-31T08:57:12;7.57;;;4.37;;
8952;SDS011;4511;50.890;8.054;2023-07-31T08:59:40;5.30;;;4.00;;
8952;SDS011;4511;50.890;8.054;2023-07-31T09:02:08;8.57;;;4.13;;
8952;SDS011;4511;50.890;8.054;2023-07-31T09:04:34;6.37;;;4.40;;
8952;SDS011;4511;50.890;8.054;2023-07-31T09:07:02;6.77;;;4.07;;
8952;SDS011;4511;50.890;8.054;2023-07-31T09:09:30;8.70;;;4.37;;
8952;SDS011;4511;50.890;8.054;2023-07-31T09:11:59;7.63;;;4.37;;
8952;SDS011;4511;50.890;8.054;2023-07-31T09:14:26;9.80;;;4.73;;
8952;SDS011;4511;50.890;8.054;2023-07-31T09:16:53;9.73;;;4.03;;
8952;SDS011;4511;50.890;8.054;2023-07-31T09:19:27;7.33;;;4.40;;
8952;SDS011;4511;50.890;8.054;2023-07-31T09:21:55;7.77;;;4.40;;
8952;SDS011;4511;50.890;8.054;2023-07-31T09:24:25;11.20;;;4.57;;
8952;SDS011;4511;50.890;8.054;2023-07-31T09:26:54;6.03;;;4.10;;
8952;SDS011;4511;50.890;8.054;2023-07-31T09:29:23;8.43;;;4.33;;
8952;SDS011;4511;50.890;8.054;2023-07-31T09:31:51;7.30;;;4.20;;
8952;SDS011;4511;50.890;8.054;2023-07-31T09:34:19;4.70;;;3.17;;
8952;SDS011;4511;50.890;8.054;2023-07-31T09:36:47;8.03;;;4.00;;
8952;SDS011;4511;50.890;8.054;2023-07-31T09:39:16;6.00;;;3.67;;
8952;SDS011;4511;50.890;8.054;2023-07-31T09:41:46;6.30;;;4.20;;
8952;SDS011;4511;50.890;8.054;2023-07-31T09:44:19;6.13;;;4.10;;
8952;SDS011;4511;50.890;8.054;2023-07-31T09:46:47;5.40;;;3.73;;
8952;SDS011;4511;50.890;8.054;2023-07-31T09:49:14;6.40;;;4.60;;
8952;SDS011;4511;50.890;8.054;2023-07-31T09:51:42;9.27;;;4.23;;
8952;SDS011;4511;50.890;8.054;2023-07-31T09:54:09;4.57;;;3.50;;
8952;SDS011;4511;50.890;8.054;2023-07-31T09:56:40;4.97;;;4.17;;
8952;SDS011;4511;50.890;8.054;2023-07-31T09:59:10;6.40;;;4.50;;
8952;SDS011;4511;50.890;8.054;2023-07-31T10:01:38;8.57;;;4.37;;
8952;SDS011;4511;50.890;8.054;2023-07-31T10:04:08;9.20;;;4.23;;
8952;SDS011;4511;50.890;8.054;2023-07-31T10:06:36;7.17;;;4.30;;
8952;SDS011;4511;50.890;8.054;2023-07-31T10:09:05;5.87;;;4.17;;
8952;SDS011;4511;50.890;8.054;2023-07-31T10:11:34;4.50;;;3.80;;
8952;SDS011;4511;50.890;8.054;2023-07-31T10:14:06;7.40;;;4.53;;
8952;SDS011;4511;50.890;8.054;2023-07-31T10:16:38;7.47;;;4.27;;
8952;SDS011;4511;50.890;8.054;2023-07-31T10:19:06;6.87;;;4.20;;
8952;SDS011;4511;50.890;8.054;2023-07-31T10:21:35;5.17;;;4.10;;
8952;SDS011;4511;50.890;8.054;2023-07-31T10:24:03;6.97;;;4.27;;
8952;SDS011;4511;50.890;8.054;2023-07-31T10:26:31;8.53;;;4.73;;
8952;SDS011;4511;50.890;8.054;2023-07-31T10:28:58;6.27;;;4.27;;
8952;SDS011;4511;50.890;8.054;2023-07-31T10:31:26;6.10;;;4.33;;
8952;SDS011;4511;50.890;8.054;2023-07-31T10:33:53;7.17;;;4.73;;
8952;SDS011;4511;50.890;8.054;2023-07-31T10:36:22;8.53;;;4.40;;
8952;SDS011;4511;50.890;8.054;2023-07-31T10:38:50;6.70;;;4.37;;
8952;SDS011;4511;50.890;8.054;2023-07-31T10:41:17;6.53;;;3.90;;
8952;SDS011;4511;50.890;8.054;2023-07-31T10:43:45;9.03;;;4.87;;
8952;SDS011;4511;50.890;8.054;2023-07-31T10:46:13;6.07;;;4.43;;
8952;SDS011;4511;50.890;8.054;2023-07-31T10:48:41;8.93;;;4.63;;
8952;SDS011;4511;50.890;8.054;2023-07-31T10:51:08;10.03;;;4.83;;
8952;SDS011;4511;50.890;8.054;2023-07-31T10:53:37;6.33;;;4.20;;
8952;SDS011;4511;50.890;8.054;2023-07-31T10:56:06;7.37;;;4.23;;
8952;SDS011;4511;50.890;8.054;2023-07-31T10:58:34;7.40;;;4.00;;
8952;SDS011;4511;50.890;8.054;2023-07-31T11:01:02;8.03;;;3.90;;
8952;SDS011;4511;50.890;8.054;2023-07-31T11:03:43;7.13;;;4.23;;
8952;SDS011;4511;50.890;8.054;2023-07-31T11:06:11;7.73;;;4.23;;
8952;SDS011;4511;50.890;8.054;2023-07-31T11:08:41;6.00;;;4.10;;
8952;SDS011;4511;50.890;8.054;2023-07-31T11:11:11;7.57;;;3.93;;
8952;SDS011;4511;50.890;8.054;2023-07-31T11:13:42;6.83;;;4.27;;
8952;SDS011;4511;50.890;8.054;2023-07-31T11:16:11;6.30;;;4.00;;
8952;SDS011;4511;50.890;8.054;2023-07-31T11:18:38;5.37;;;3.63;;
8952;SDS011;4511;50.890;8.054;2023-07-31T11:21:06;5.03;;;3.70;;
8952;SDS011;4511;50.890;8.054;2023-07-31T11:23:33;9.33;;;4.37;;
8952;SDS011;4511;50.890;8.054;2023-07-31T11:26:02;7.90;;;4.07;;
8952;SDS011;4511;50.890;8.054;2023-07-31T11:28:33;6.77;;;3.77;;
8952;SDS011;4511;50.890;8.054;2023-07-31T11:31:00;6.27;;;3.63;;
8952;SDS011;4511;50.890;8.054;2023-07-31T11:33:28;6.93;;;3.90;;
8952;SDS011;4511;50.890;8.054;2023-07-31T11:35:55;6.00;;;3.67;;
8952;SDS011;4511;50.890;8.054;2023-07-31T11:38:22;6.00;;;4.13;;
8952;SDS011;4511;50.890;8.054;2023-07-31T11:40:50;8.10;;;3.90;;
8952;SDS011;4511;50.890;8.054;2023-07-31T11:43:17;6.03;;;3.50;;
8952;SDS011;4511;50.890;8.054;2023-07-31T11:45:48;5.43;;;3.80;;
8952;SDS011;4511;50.890;8.054;2023-07-31T11:48:19;5.33;;;3.50;;
8952;SDS011;4511;50.890;8.054;2023-07-31T11:50:47;6.67;;;3.77;;
8952;SDS011;4511;50.890;8.054;2023-07-31T11:53:16;6.20;;;3.63;;
8952;SDS011;4511;50.890;8.054;2023-07-31T11:55:45;4.93;;;3.77;;
8952;SDS011;4511;50.890;8.054;2023-07-31T11:58:13;4.30;;;3.30;;
8952;SDS011;4511;50.890;8.054;2023-07-31T12:00:41;7.43;;;3.47;;
8952;SDS011;4511;50.890;8.054;2023-07-31T12:03:09;4.60;;;3.30;;
8952;SDS011;4511;50.890;8.054;2023-07-31T12:05:36;6.57;;;3.60;;
8952;SDS011;4511;50.890;8.054;2023-07-31T12:08:08;6.03;;;3.80;;
8952;SDS011;4511;50.890;8.054;2023-07-31T12:10:35;7.60;;;3.80;;
8952;SDS011;4511;50.890;8.054;2023-07-31T12:13:03;5.63;;;3.43;;
8952;SDS011;4511;50.890;8.054;2023-07-31T12:15:35;5.50;;;3.33;;
8952;SDS011;4511;50.890;8.054;2023-07-31T12:18:06;8.10;;;3.43;;
8952;SDS011;4511;50.890;8.054;2023-07-31T12:20:39;5.27;;;3.50;;
8952;SDS011;4511;50.890;8.054;2023-07-31T12:23:14;7.97;;;3.57;;
8952;SDS011;4511;50.890;8.054;2023-07-31T12:25:41;5.67;;;3.13;;
8952;SDS011;4511;50.890;8.054;2023-07-31T12:28:08;3.83;;;3.30;;
8952;SDS011;4511;50.890;8.054;2023-07-31T12:30:37;6.97;;;3.30;;
8952;SDS011;4511;50.890;8.054;2023-07-31T12:33:06;5.20;;;3.40;;
8952;SDS011;4511;50.890;8.054;2023-07-31T12:35:40;6.70;;;3.97;;
8952;SDS011;4511;50.890;8.054;2023-07-31T12:38:08;5.83;;;3.67;;
8952;SDS011;4511;50.890;8.054;2023-07-31T12:40:36;4.37;;;3.57;;
8952;SDS011;4511;50.890;8.054;2023-07-31T12:43:03;5.73;;;3.27;;
8952;SDS011;4511;50.890;8.054;2023-07-31T12:45:30;5.23;;;3.40;;
8952;SDS011;4511;50.890;8.054;2023-07-31T12:47:58;4.97;;;3.20;;
8952;SDS011;4511;50.890;8.054;2023-07-31T12:50:24;4.90;;;3.03;;
8952;SDS011;4511;50.890;8.054;2023-07-31T12:52:53;6.83;;;3.63;;
8952;SDS011;4511;50.890;8.054;2023-07-31T12:55:20;3.27;;;2.90;;
8952;SDS011;4511;50.890;8.054;2023-07-31T12:57:47;5.80;;;2.93;;
8952;SDS011;4511;50.890;8.054;2023-07-31T13:00:14;7.87;;;3.17;;
8952;SDS011;4511;50.890;8.054;2023-07-31T13:02:41;4.50;;;3.30;;
8952;SDS011;4511;50.890;8.054;2023-07-31T13:05:08;4.63;;;3.03;;
8952;SDS011;4511;50.890;8.054;2023-07-31T13:07:35;6.03;;;3.33;;
8952;SDS011;4511;50.890;8.054;2023-07-31T13:10:03;4.40;;;3.10;;
8952;SDS011;4511;50.890;8.054;2023-07-31T13:12:30;5.67;;;3.20;;
8952;SDS011;4511;50.890;8.054;2023-07-31T13:14:57;4.67;;;2.90;;
8952;SDS011;4511;50.890;8.054;2023-07-31T13:17:24;3.57;;;2.93;;
8952;SDS011;4511;50.890;8.054;2023-07-31T13:19:51;3.90;;;2.90;;
8952;SDS011;4511;50.890;8.054;2023-07-31T13:22:18;4.83;;;3.10;;
8952;SDS011;4511;50.890;8.054;2023-07-31T13:24:44;3.20;;;2.90;;
8952;SDS011;4511;50.890;8.054;2023-07-31T13:27:12;4.20;;;2.83;;
8952;SDS011;4511;50.890;8.054;2023-07-31T13:29:41;4.30;;;2.87;;
8952;SDS011;4511;50.890;8.054;2023-07-31T13:32:08;3.23;;;2.90;;
8952;SDS011;4511;50.890;8.054;2023-07-31T13:34:35;4.77;;;3.10;;
8952;SDS011;4511;50.890;8.054;2023-07-31T13:37:02;3.07;;;2.73;;
8952;SDS011;4511;50.890;8.054;2023-07-31T13:39:30;4.03;;;2.60;;
8952;SDS011;4511;50.890;8.054;2023-07-31T13:41:57;4.67;;;2.83;;
8952;SDS011;4511;50.890;8.054;2023-07-31T13:44:25;7.13;;;2.70;;
8952;SDS011;4511;50.890;8.054;2023-07-31T13:46:52;3.30;;;2.43;;
8952;SDS011;4511;50.890;8.054;2023-07-31T13:49:19;3.73;;;2.77;;
8952;SDS011;4511;50.890;8.054;2023-07-31T13:51:46;4.83;;;2.60;;
8952;SDS011;4511;50.890;8.054;2023-07-31T13:54:12;6.60;;;2.40;;
8952;SDS011;4511;50.890;8.054;2023-07-31T13:56:40;4.40;;;2.93;;
8952;SDS011;4511;50.890;8.054;2023-07-31T13:59:07;8.93;;;2.90;;
8952;SDS011;4511;50.890;8.054;2023-07-31T14:01:35;4.47;;;2.60;;
8952;SDS011;4511;50.890;8.054;2023-07-31T14:04:02;4.57;;;2.77;;
8952;SDS011;4511;50.890;8.054;2023-07-31T14:06:29;3.27;;;2.63;;
8952;SDS011;4511;50.890;8.054;2023-07-31T14:08:56;3.97;;;2.50;;
8952;SDS011;4511;50.890;8.054;2023-07-31T14:11:23;3.03;;;2.57;;
8952;SDS011;4511;50.890;8.054;2023-07-31T14:13:49;5.80;;;2.97;;
8952;SDS011;4511;50.890;8.054;2023-07-31T14:16:17;3.40;;;2.60;;
8952;SDS011;4511;50.890;8.054;2023-07-31T14:18:45;3.07;;;2.63;;
8952;SDS011;4511;50.890;8.054;2023-07-31T14:21:12;2.90;;;2.60;;
8952;SDS011;4511;50.890;8.054;2023-07-31T14:23:39;5.80;;;2.80;;
8952;SDS011;4511;50.890;8.054;2023-07-31T14:26:06;2.70;;;2.50;;
8952;SDS011;4511;50.890;8.054;2023-07-31T14:28:33;4.07;;;2.80;;
8952;SDS011;4511;50.890;8.054;2023-07-31T14:31:00;3.63;;;2.67;;
8952;SDS011;4511;50.890;8.054;2023-07-31T14:33:27;3.83;;;2.53;;
8952;SDS011;4511;50.890;8.054;2023-07-31T14:35:55;2.67;;;2.47;;
8952;SDS011;4511;50.890;8.054;2023-07-31T14:38:22;3.03;;;2.70;;
8952;SDS011;4511;50.890;8.054;2023-07-31T14:40:48;3.10;;;2.63;;
8952;SDS011;4511;50.890;8.054;2023-07-31T14:43:15;3.00;;;2.60;;
8952;SDS011;4511;50.890;8.054;2023-07-31T14:45:42;3.07;;;2.70;;
8952;SDS011;4511;50.890;8.054;2023-07-31T14:48:11;6.00;;;2.90;;
8952;SDS011;4511;50.890;8.054;2023-07-31T14:50:38;3.17;;;2.70;;
8952;SDS011;4511;50.890;8.054;2023-07-31T14:53:06;3.03;;;2.77;;
8952;SDS011;4511;50.890;8.054;2023-07-31T14:55:33;4.10;;;3.37;;
8952;SDS011;4511;50.890;8.054;2023-07-31T14:57:59;9.50;;;3.67;;
8952;SDS011;4511;50.890;8.054;2023-07-31T15:00:26;4.33;;;3.63;;
8952;SDS011;4511;50.890;8.054;2023-07-31T15:02:53;3.80;;;2.97;;
8952;SDS011;4511;50.890;8.054;2023-07-31T15:05:20;3.57;;;3.10;;
8952;SDS011;4511;50.890;8.054;2023-07-31T15:07:47;4.00;;;3.10;;
8952;SDS011;4511;50.890;8.054;2023-07-31T15:10:15;6.57;;;3.20;;
8952;SDS011;4511;50.890;8.054;2023-07-31T15:12:42;4.70;;;3.20;;
8952;SDS011;4511;50.890;8.054;2023-07-31T15:15:09;3.17;;;2.87;;
8952;SDS011;4511;50.890;8.054;2023-07-31T15:17:35;3.07;;;2.70;;